sensor_id;sensor_type;location;lat;lon;timestamp;P1;durP1;ratioP1;P2;durP2;ratioP2
30896;SDS011;64229;52.246;21.054;2024-02-21T00:00:27;8.45;;;3.28;;
30896;SDS011;64229;52.246;21.054;2024-02-21T00:02:53;13.00;;;3.35;;
30896;SDS011;64229;52.246;21.054;2024-02-21T00:05:18;14.30;;;3.53;;
30896;SDS011;64229;52.246;21.054;2024-02-21T00:07:43;16.23;;;3.97;;
30896;SDS011;64229;52.246;21.054;2024-02-21T00:10:08;15.67;;;3.73;;
30896;SDS011;64229;52.246;21.054;2024-02-21T00:12:34;14.30;;;3.65;;
30896;SDS011;64229;52.246;21.054;2024-02-21T00:14:59;12.70;;;3.50;;
30896;SDS011;64229;52.246;21.054;2024-02-21T00:17:25;12.57;;;4.13;;
30896;SDS011;64229;52.246;21.054;2024-02-21T00:19:51;13.00;;;3.67;;
30896;SDS011;64229;52.246;21.054;2024-02-21T00:22:16;13.13;;;3.90;;
30896;SDS011;64229;52.246;21.054;2024-02-21T00:24:41;15.93;;;4.38;;
30896;SDS011;64229;52.246;21.054;2024-02-21T00:27:07;20.45;;;3.88;;
30896;SDS011;64229;52.246;21.054;2024-02-21T00:29:32;15.80;;;4.38;;
30896;SDS011;64229;52.246;21.054;2024-02-21T00:31:59;17.52;;;4.40;;
30896;SDS011;64229;52.246;21.054;2024-02-21T00:34:24;9.00;;;3.40;;
30896;SDS011;64229;52.246;21.054;2024-02-21T00:36:49;15.27;;;3.93;;
30896;SDS011;64229;52.246;21.054;2024-02-21T00:39:15;11.13;;;3.72;;
30896;SDS011;64229;52.246;21.054;2024-02-21T00:41:40;14.88;;;4.30;;
30896;SDS011;64229;52.246;21.054;2024-02-21T00:44:05;16.98;;;4.70;;
30896;SDS011;64229;52.246;21.054;2024-02-21T00:46:31;11.05;;;3.45;;
30896;SDS011;64229;52.246;21.054;2024-02-21T00:48:56;14.10;;;4.00;;
30896;SDS011;64229;52.246;21.054;2024-02-21T00:51:21;14.73;;;3.15;;
30896;SDS011;64229;52.246;21.054;2024-02-21T00:53:47;9.83;;;3.90;;
30896;SDS011;64229;52.246;21.054;2024-02-21T00:56:12;10.53;;;3.63;;
30896;SDS011;64229;52.246;21.054;2024-02-21T00:58:37;15.70;;;3.33;;
30896;SDS011;64229;52.246;21.054;2024-02-21T01:01:02;14.82;;;3.28;;
30896;SDS011;64229;52.246;21.054;2024-02-21T01:03:28;17.48;;;4.20;;
30896;SDS011;64229;52.246;21.054;2024-02-21T01:05:53;14.23;;;4.10;;
30896;SDS011;64229;52.246;21.054;2024-02-21T01:08:19;14.10;;;4.55;;
30896;SDS011;64229;52.246;21.054;2024-02-21T01:10:44;14.65;;;3.90;;
30896;SDS011;64229;52.246;21.054;2024-02-21T01:13:09;11.60;;;4.07;;
30896;SDS011;64229;52.246;21.054;2024-02-21T01:15:34;14.98;;;4.30;;
30896;SDS011;64229;52.246;21.054;2024-02-21T01:18:00;14.48;;;4.28;;
30896;SDS011;64229;52.246;21.054;2024-02-21T01:20:25;14.88;;;4.22;;
30896;SDS011;64229;52.246;21.054;2024-02-21T01:22:51;18.87;;;4.27;;
30896;SDS011;64229;52.246;21.054;2024-02-21T01:25:16;16.52;;;4.75;;
30896;SDS011;64229;52.246;21.054;2024-02-21T01:27:41;15.80;;;4.38;;
30896;SDS011;64229;52.246;21.054;2024-02-21T01:30:08;12.32;;;4.38;;
30896;SDS011;64229;52.246;21.054;2024-02-21T01:32:35;18.55;;;4.97;;
30896;SDS011;64229;52.246;21.054;2024-02-21T01:35:00;17.60;;;4.83;;
30896;SDS011;64229;52.246;21.054;2024-02-21T01:37:26;17.67;;;5.07;;
30896;SDS011;64229;52.246;21.054;2024-02-21T01:39:51;13.13;;;4.65;;
30896;SDS011;64229;52.246;21.054;2024-02-21T01:42:17;14.37;;;5.00;;
30896;SDS011;64229;52.246;21.054;2024-02-21T01:44:42;16.25;;;5.13;;
30896;SDS011;64229;52.246;21.054;2024-02-21T01:47:07;21.33;;;5.05;;
30896;SDS011;64229;52.246;21.054;2024-02-21T01:49:33;12.57;;;5.32;;
30896;SDS011;64229;52.246;21.054;2024-02-21T01:51:58;12.48;;;4.20;;
30896;SDS011;64229;52.246;21.054;2024-02-21T01:54:24;13.00;;;4.72;;
30896;SDS011;64229;52.246;21.054;2024-02-21T01:56:53;14.00;;;5.15;;
30896;SDS011;64229;52.246;21.054;2024-02-21T01:59:19;21.88;;;5.78;;
30896;SDS011;64229;52.246;21.054;2024-02-21T02:01:46;12.43;;;5.28;;
30896;SDS011;64229;52.246;21.054;2024-02-21T02:04:11;15.20;;;5.53;;
30896;SDS011;64229;52.246;21.054;2024-02-21T02:06:37;15.95;;;5.57;;
30896;SDS011;64229;52.246;21.054;2024-02-21T02:09:02;16.20;;;5.37;;
30896;SDS011;64229;52.246;21.054;2024-02-21T02:11:27;23.55;;;6.82;;
30896;SDS011;64229;52.246;21.054;2024-02-21T02:13:53;16.65;;;6.68;;
30896;SDS011;64229;52.246;21.054;2024-02-21T02:16:19;17.67;;;6.60;;
30896;SDS011;64229;52.246;21.054;2024-02-21T02:18:44;16.50;;;6.73;;
30896;SDS011;64229;52.246;21.054;2024-02-21T02:21:22;19.92;;;7.85;;
30896;SDS011;64229;52.246;21.054;2024-02-21T02:23:52;13.25;;;7.15;;
30896;SDS011;64229;52.246;21.054;2024-02-21T02:26:17;20.55;;;8.27;;
30896;SDS011;64229;52.246;21.054;2024-02-21T02:28:42;22.42;;;7.97;;
30896;SDS011;64229;52.246;21.054;2024-02-21T02:31:08;20.57;;;8.83;;
30896;SDS011;64229;52.246;21.054;2024-02-21T02:33:33;22.85;;;7.95;;
30896;SDS011;64229;52.246;21.054;2024-02-21T02:35:58;24.90;;;8.20;;
30896;SDS011;64229;52.246;21.054;2024-02-21T02:38:24;20.67;;;7.40;;
30896;SDS011;64229;52.246;21.054;2024-02-21T02:40:49;23.60;;;8.85;;
30896;SDS011;64229;52.246;21.054;2024-02-21T02:43:14;19.92;;;7.60;;
30896;SDS011;64229;52.246;21.054;2024-02-21T02:45:40;21.63;;;7.45;;
30896;SDS011;64229;52.246;21.054;2024-02-21T02:48:05;20.50;;;7.35;;
30896;SDS011;64229;52.246;21.054;2024-02-21T02:50:31;21.48;;;7.30;;
30896;SDS011;64229;52.246;21.054;2024-02-21T02:52:57;22.45;;;6.80;;
30896;SDS011;64229;52.246;21.054;2024-02-21T02:55:22;24.40;;;7.18;;
30896;SDS011;64229;52.246;21.054;2024-02-21T02:57:47;17.25;;;7.22;;
30896;SDS011;64229;52.246;21.054;2024-02-21T03:00:13;18.13;;;6.63;;
30896;SDS011;64229;52.246;21.054;2024-02-21T03:02:40;13.68;;;6.28;;
30896;SDS011;64229;52.246;21.054;2024-02-21T03:05:12;15.43;;;5.97;;
30896;SDS011;64229;52.246;21.054;2024-02-21T03:07:39;22.50;;;6.85;;
30896;SDS011;64229;52.246;21.054;2024-02-21T03:10:05;19.65;;;6.75;;
30896;SDS011;64229;52.246;21.054;2024-02-21T03:12:30;20.10;;;6.53;;
30896;SDS011;64229;52.246;21.054;2024-02-21T03:14:55;21.07;;;7.17;;
30896;SDS011;64229;52.246;21.054;2024-02-21T03:17:21;17.40;;;7.10;;
30896;SDS011;64229;52.246;21.054;2024-02-21T03:19:46;25.63;;;6.78;;
30896;SDS011;64229;52.246;21.054;2024-02-21T03:22:13;17.70;;;6.60;;
30896;SDS011;64229;52.246;21.054;2024-02-21T03:24:38;16.25;;;6.32;;
30896;SDS011;64229;52.246;21.054;2024-02-21T03:27:04;19.70;;;7.10;;
30896;SDS011;64229;52.246;21.054;2024-02-21T03:29:29;19.20;;;7.30;;
30896;SDS011;64229;52.246;21.054;2024-02-21T03:31:54;24.70;;;7.17;;
30896;SDS011;64229;52.246;21.054;2024-02-21T03:34:20;17.08;;;7.13;;
30896;SDS011;64229;52.246;21.054;2024-02-21T03:36:45;19.77;;;6.75;;
30896;SDS011;64229;52.246;21.054;2024-02-21T03:39:10;17.13;;;6.07;;
30896;SDS011;64229;52.246;21.054;2024-02-21T03:41:35;19.20;;;6.60;;
30896;SDS011;64229;52.246;21.054;2024-02-21T03:44:01;17.55;;;6.25;;
30896;SDS011;64229;52.246;21.054;2024-02-21T03:46:27;21.52;;;6.72;;
30896;SDS011;64229;52.246;21.054;2024-02-21T03:48:52;17.08;;;6.75;;
30896;SDS011;64229;52.246;21.054;2024-02-21T03:51:17;23.02;;;6.60;;
30896;SDS011;64229;52.246;21.054;2024-02-21T03:53:43;14.43;;;6.80;;
30896;SDS011;64229;52.246;21.054;2024-02-21T03:56:08;15.60;;;6.07;;
30896;SDS011;64229;52.246;21.054;2024-02-21T03:58:33;20.98;;;6.55;;
30896;SDS011;64229;52.246;21.054;2024-02-21T04:01:02;13.82;;;5.78;;
30896;SDS011;64229;52.246;21.054;2024-02-21T04:03:28;16.92;;;5.78;;
30896;SDS011;64229;52.246;21.054;2024-02-21T04:05:54;13.23;;;5.03;;
30896;SDS011;64229;52.246;21.054;2024-02-21T04:08:20;14.82;;;5.90;;
30896;SDS011;64229;52.246;21.054;2024-02-21T04:10:45;19.60;;;5.53;;
30896;SDS011;64229;52.246;21.054;2024-02-21T04:13:10;16.83;;;4.85;;
30896;SDS011;64229;52.246;21.054;2024-02-21T04:15:36;17.17;;;5.85;;
30896;SDS011;64229;52.246;21.054;2024-02-21T04:18:01;15.82;;;5.47;;
30896;SDS011;64229;52.246;21.054;2024-02-21T04:20:28;16.90;;;5.85;;
30896;SDS011;64229;52.246;21.054;2024-02-21T04:22:53;15.65;;;6.40;;
30896;SDS011;64229;52.246;21.054;2024-02-21T04:25:19;17.90;;;6.25;;
30896;SDS011;64229;52.246;21.054;2024-02-21T04:27:44;19.98;;;6.07;;
30896;SDS011;64229;52.246;21.054;2024-02-21T04:30:10;19.90;;;6.03;;
30896;SDS011;64229;52.246;21.054;2024-02-21T04:32:35;18.65;;;6.32;;
30896;SDS011;64229;52.246;21.054;2024-02-21T04:35:00;17.48;;;7.18;;
30896;SDS011;64229;52.246;21.054;2024-02-21T04:37:26;18.92;;;6.18;;
30896;SDS011;64229;52.246;21.054;2024-02-21T04:39:51;21.77;;;6.70;;
30896;SDS011;64229;52.246;21.054;2024-02-21T04:42:17;15.32;;;6.50;;
30896;SDS011;64229;52.246;21.054;2024-02-21T04:44:42;25.17;;;7.50;;
30896;SDS011;64229;52.246;21.054;2024-02-21T04:47:07;17.95;;;6.82;;
30896;SDS011;64229;52.246;21.054;2024-02-21T04:49:33;26.23;;;7.65;;
30896;SDS011;64229;52.246;21.054;2024-02-21T04:51:58;20.42;;;8.10;;
30896;SDS011;64229;52.246;21.054;2024-02-21T04:54:24;21.70;;;8.68;;
30896;SDS011;64229;52.246;21.054;2024-02-21T04:56:50;19.75;;;8.25;;
30896;SDS011;64229;52.246;21.054;2024-02-21T04:59:15;20.42;;;8.82;;
30896;SDS011;64229;52.246;21.054;2024-02-21T05:01:41;23.98;;;9.23;;
30896;SDS011;64229;52.246;21.054;2024-02-21T05:04:06;30.90;;;10.13;;
30896;SDS011;64229;52.246;21.054;2024-02-21T05:06:31;19.13;;;9.38;;
30896;SDS011;64229;52.246;21.054;2024-02-21T05:08:56;20.88;;;8.90;;
30896;SDS011;64229;52.246;21.054;2024-02-21T05:11:22;24.70;;;9.27;;
30896;SDS011;64229;52.246;21.054;2024-02-21T05:13:48;22.42;;;10.10;;
30896;SDS011;64229;52.246;21.054;2024-02-21T05:16:13;25.15;;;9.25;;
30896;SDS011;64229;52.246;21.054;2024-02-21T05:18:40;26.27;;;9.13;;
30896;SDS011;64229;52.246;21.054;2024-02-21T05:21:05;28.92;;;9.32;;
30896;SDS011;64229;52.246;21.054;2024-02-21T05:23:31;21.42;;;9.32;;
30896;SDS011;64229;52.246;21.054;2024-02-21T05:25:56;23.67;;;8.50;;
30896;SDS011;64229;52.246;21.054;2024-02-21T05:28:21;25.05;;;9.15;;
30896;SDS011;64229;52.246;21.054;2024-02-21T05:30:47;27.98;;;8.88;;
30896;SDS011;64229;52.246;21.054;2024-02-21T05:33:12;24.20;;;8.67;;
30896;SDS011;64229;52.246;21.054;2024-02-21T05:35:37;28.75;;;9.20;;
30896;SDS011;64229;52.246;21.054;2024-02-21T05:38:03;25.80;;;9.48;;
30896;SDS011;64229;52.246;21.054;2024-02-21T05:40:36;25.85;;;9.00;;
30896;SDS011;64229;52.246;21.054;2024-02-21T05:43:01;24.10;;;9.77;;
30896;SDS011;64229;52.246;21.054;2024-02-21T05:45:27;27.77;;;9.45;;
30896;SDS011;64229;52.246;21.054;2024-02-21T05:47:52;25.23;;;10.07;;
30896;SDS011;64229;52.246;21.054;2024-02-21T05:50:17;31.98;;;10.43;;
30896;SDS011;64229;52.246;21.054;2024-02-21T05:52:42;33.08;;;10.93;;
30896;SDS011;64229;52.246;21.054;2024-02-21T05:55:08;29.70;;;10.25;;
30896;SDS011;64229;52.246;21.054;2024-02-21T05:57:36;27.35;;;9.73;;
30896;SDS011;64229;52.246;21.054;2024-02-21T06:00:03;23.23;;;10.27;;
30896;SDS011;64229;52.246;21.054;2024-02-21T06:02:30;29.95;;;9.63;;
30896;SDS011;64229;52.246;21.054;2024-02-21T06:04:55;23.92;;;9.40;;
30896;SDS011;64229;52.246;21.054;2024-02-21T06:07:20;22.87;;;9.83;;
30896;SDS011;64229;52.246;21.054;2024-02-21T06:09:46;34.50;;;9.93;;
30896;SDS011;64229;52.246;21.054;2024-02-21T06:12:11;26.03;;;9.97;;
30896;SDS011;64229;52.246;21.054;2024-02-21T06:14:36;30.17;;;11.23;;
30896;SDS011;64229;52.246;21.054;2024-02-21T06:17:02;24.30;;;9.93;;
30896;SDS011;64229;52.246;21.054;2024-02-21T06:19:27;23.58;;;9.02;;
30896;SDS011;64229;52.246;21.054;2024-02-21T06:21:52;29.77;;;8.83;;
30896;SDS011;64229;52.246;21.054;2024-02-21T06:24:18;23.40;;;10.48;;
30896;SDS011;64229;52.246;21.054;2024-02-21T06:26:43;23.75;;;9.68;;
30896;SDS011;64229;52.246;21.054;2024-02-21T06:29:09;31.27;;;10.18;;
30896;SDS011;64229;52.246;21.054;2024-02-21T06:31:35;30.20;;;10.23;;
30896;SDS011;64229;52.246;21.054;2024-02-21T06:34:00;28.50;;;10.23;;
30896;SDS011;64229;52.246;21.054;2024-02-21T06:36:25;27.13;;;10.43;;
30896;SDS011;64229;52.246;21.054;2024-02-21T06:38:51;26.27;;;9.70;;
30896;SDS011;64229;52.246;21.054;2024-02-21T06:41:16;22.90;;;9.43;;
30896;SDS011;64229;52.246;21.054;2024-02-21T06:43:43;24.42;;;10.38;;
30896;SDS011;64229;52.246;21.054;2024-02-21T06:46:10;33.17;;;10.32;;
30896;SDS011;64229;52.246;21.054;2024-02-21T06:48:35;29.13;;;9.77;;
30896;SDS011;64229;52.246;21.054;2024-02-21T06:51:00;25.50;;;10.03;;
30896;SDS011;64229;52.246;21.054;2024-02-21T06:53:25;28.40;;;10.07;;
30896;SDS011;64229;52.246;21.054;2024-02-21T06:55:51;33.55;;;10.30;;
30896;SDS011;64229;52.246;21.054;2024-02-21T06:58:16;31.98;;;10.15;;
30896;SDS011;64229;52.246;21.054;2024-02-21T07:00:42;34.22;;;10.75;;
30896;SDS011;64229;52.246;21.054;2024-02-21T07:03:07;31.10;;;11.18;;
30896;SDS011;64229;52.246;21.054;2024-02-21T07:05:32;29.33;;;10.77;;
30896;SDS011;64229;52.246;21.054;2024-02-21T07:07:58;33.22;;;11.15;;
30896;SDS011;64229;52.246;21.054;2024-02-21T07:10:23;25.42;;;9.80;;
30896;SDS011;64229;52.246;21.054;2024-02-21T07:12:48;29.90;;;10.90;;
30896;SDS011;64229;52.246;21.054;2024-02-21T07:15:13;28.10;;;11.23;;
30896;SDS011;64229;52.246;21.054;2024-02-21T07:17:39;25.85;;;11.05;;
30896;SDS011;64229;52.246;21.054;2024-02-21T07:20:04;29.42;;;10.75;;
30896;SDS011;64229;52.246;21.054;2024-02-21T07:22:30;26.20;;;9.70;;
30896;SDS011;64229;52.246;21.054;2024-02-21T07:24:55;26.90;;;10.40;;
30896;SDS011;64229;52.246;21.054;2024-02-21T07:27:20;32.53;;;11.07;;
30896;SDS011;64229;52.246;21.054;2024-02-21T07:29:46;25.08;;;10.10;;
30896;SDS011;64229;52.246;21.054;2024-02-21T07:32:13;26.63;;;10.20;;
30896;SDS011;64229;52.246;21.054;2024-02-21T07:34:39;29.17;;;10.50;;
30896;SDS011;64229;52.246;21.054;2024-02-21T07:37:04;34.33;;;11.10;;
30896;SDS011;64229;52.246;21.054;2024-02-21T07:39:29;37.53;;;10.38;;
30896;SDS011;64229;52.246;21.054;2024-02-21T07:41:54;30.23;;;10.27;;
30896;SDS011;64229;52.246;21.054;2024-02-21T07:44:20;33.15;;;10.32;;
30896;SDS011;64229;52.246;21.054;2024-02-21T07:46:46;29.70;;;10.27;;
30896;SDS011;64229;52.246;21.054;2024-02-21T07:49:11;34.08;;;10.65;;
30896;SDS011;64229;52.246;21.054;2024-02-21T07:51:36;24.57;;;10.00;;
30896;SDS011;64229;52.246;21.054;2024-02-21T07:54:02;32.63;;;10.40;;
30896;SDS011;64229;52.246;21.054;2024-02-21T07:56:29;28.98;;;10.35;;
30896;SDS011;64229;52.246;21.054;2024-02-21T07:58:54;37.15;;;11.93;;
30896;SDS011;64229;52.246;21.054;2024-02-21T08:01:20;38.50;;;10.77;;
30896;SDS011;64229;52.246;21.054;2024-02-21T08:03:46;29.58;;;10.75;;
30896;SDS011;64229;52.246;21.054;2024-02-21T08:06:12;32.35;;;9.82;;
30896;SDS011;64229;52.246;21.054;2024-02-21T08:08:38;29.27;;;9.88;;
30896;SDS011;64229;52.246;21.054;2024-02-21T08:11:03;25.77;;;9.75;;
30896;SDS011;64229;52.246;21.054;2024-02-21T08:13:29;26.73;;;10.63;;
30896;SDS011;64229;52.246;21.054;2024-02-21T08:15:54;32.08;;;11.32;;
30896;SDS011;64229;52.246;21.054;2024-02-21T08:18:19;34.20;;;11.60;;
30896;SDS011;64229;52.246;21.054;2024-02-21T08:20:45;33.65;;;11.43;;
30896;SDS011;64229;52.246;21.054;2024-02-21T08:23:10;35.72;;;11.25;;
30896;SDS011;64229;52.246;21.054;2024-02-21T08:25:37;38.90;;;11.68;;
30896;SDS011;64229;52.246;21.054;2024-02-21T08:28:02;23.93;;;9.33;;
30896;SDS011;64229;52.246;21.054;2024-02-21T08:30:28;32.88;;;11.02;;
30896;SDS011;64229;52.246;21.054;2024-02-21T08:32:53;32.10;;;11.05;;
30896;SDS011;64229;52.246;21.054;2024-02-21T08:35:21;33.08;;;11.65;;
30896;SDS011;64229;52.246;21.054;2024-02-21T08:37:47;31.33;;;9.95;;
30896;SDS011;64229;52.246;21.054;2024-02-21T08:40:13;31.98;;;11.75;;
30896;SDS011;64229;52.246;21.054;2024-02-21T08:42:38;36.53;;;11.35;;
30896;SDS011;64229;52.246;21.054;2024-02-21T08:45:04;28.00;;;10.88;;
30896;SDS011;64229;52.246;21.054;2024-02-21T08:47:30;31.80;;;11.30;;
30896;SDS011;64229;52.246;21.054;2024-02-21T08:49:55;36.70;;;11.57;;
30896;SDS011;64229;52.246;21.054;2024-02-21T08:52:20;38.55;;;11.98;;
30896;SDS011;64229;52.246;21.054;2024-02-21T08:54:46;27.60;;;11.23;;
30896;SDS011;64229;52.246;21.054;2024-02-21T08:57:11;33.43;;;11.57;;
30896;SDS011;64229;52.246;21.054;2024-02-21T08:59:38;31.98;;;12.25;;
30896;SDS011;64229;52.246;21.054;2024-02-21T09:02:04;30.08;;;11.88;;
30896;SDS011;64229;52.246;21.054;2024-02-21T09:04:29;39.78;;;10.82;;
30896;SDS011;64229;52.246;21.054;2024-02-21T09:06:55;30.52;;;10.65;;
30896;SDS011;64229;52.246;21.054;2024-02-21T09:09:21;29.90;;;11.52;;
30896;SDS011;64229;52.246;21.054;2024-02-21T09:11:46;30.63;;;10.80;;
30896;SDS011;64229;52.246;21.054;2024-02-21T09:14:11;34.03;;;10.82;;
30896;SDS011;64229;52.246;21.054;2024-02-21T09:16:37;29.50;;;11.85;;
30896;SDS011;64229;52.246;21.054;2024-02-21T09:19:02;32.40;;;10.90;;
30896;SDS011;64229;52.246;21.054;2024-02-21T09:21:27;31.88;;;9.90;;
30896;SDS011;64229;52.246;21.054;2024-02-21T09:23:53;38.78;;;11.90;;
30896;SDS011;64229;52.246;21.054;2024-02-21T09:26:18;36.80;;;11.25;;
30896;SDS011;64229;52.246;21.054;2024-02-21T09:28:43;31.23;;;11.23;;
30896;SDS011;64229;52.246;21.054;2024-02-21T09:31:10;26.35;;;10.30;;
30896;SDS011;64229;52.246;21.054;2024-02-21T09:33:35;37.92;;;11.18;;
30896;SDS011;64229;52.246;21.054;2024-02-21T09:36:00;28.40;;;10.77;;
30896;SDS011;64229;52.246;21.054;2024-02-21T09:38:26;28.98;;;10.32;;
30896;SDS011;64229;52.246;21.054;2024-02-21T09:43:41;23.98;;;10.45;;
30896;SDS011;64229;52.246;21.054;2024-02-21T09:46:06;30.48;;;10.32;;
30896;SDS011;64229;52.246;21.054;2024-02-21T09:48:50;25.63;;;10.73;;
30896;SDS011;64229;52.246;21.054;2024-02-21T09:51:20;28.42;;;9.32;;
30896;SDS011;64229;52.246;21.054;2024-02-21T09:53:46;21.35;;;8.13;;
30896;SDS011;64229;52.246;21.054;2024-02-21T09:56:13;28.25;;;8.45;;
30896;SDS011;64229;52.246;21.054;2024-02-21T09:58:38;30.02;;;9.00;;
30896;SDS011;64229;52.246;21.054;2024-02-21T10:01:04;22.17;;;7.97;;
30896;SDS011;64229;52.246;21.054;2024-02-21T10:03:31;23.63;;;7.10;;
30896;SDS011;64229;52.246;21.054;2024-02-21T10:05:58;22.73;;;7.40;;
30896;SDS011;64229;52.246;21.054;2024-02-21T10:08:25;24.65;;;7.72;;
30896;SDS011;64229;52.246;21.054;2024-02-21T10:10:51;20.92;;;7.30;;
30896;SDS011;64229;52.246;21.054;2024-02-21T10:13:24;25.90;;;7.40;;
30896;SDS011;64229;52.246;21.054;2024-02-21T10:16:01;22.17;;;7.47;;
30896;SDS011;64229;52.246;21.054;2024-02-21T10:18:30;21.67;;;6.60;;
30896;SDS011;64229;52.246;21.054;2024-02-21T10:23:47;23.55;;;7.30;;
30896;SDS011;64229;52.246;21.054;2024-02-21T10:26:14;23.20;;;6.72;;
30896;SDS011;64229;52.246;21.054;2024-02-21T10:28:41;23.23;;;6.57;;
30896;SDS011;64229;52.246;21.054;2024-02-21T10:31:10;18.60;;;6.40;;
30896;SDS011;64229;52.246;21.054;2024-02-21T10:33:53;16.70;;;5.90;;
30896;SDS011;64229;52.246;21.054;2024-02-21T10:36:18;17.27;;;6.00;;
30896;SDS011;64229;52.246;21.054;2024-02-21T10:38:44;23.75;;;7.40;;
30896;SDS011;64229;52.246;21.054;2024-02-21T10:41:09;14.40;;;6.60;;
30896;SDS011;64229;52.246;21.054;2024-02-21T10:43:40;20.60;;;6.75;;
30896;SDS011;64229;52.246;21.054;2024-02-21T10:46:08;25.35;;;6.50;;
30896;SDS011;64229;52.246;21.054;2024-02-21T10:48:44;18.77;;;6.97;;
30896;SDS011;64229;52.246;21.054;2024-02-21T10:53:50;17.08;;;6.00;;
30896;SDS011;64229;52.246;21.054;2024-02-21T10:56:38;23.27;;;8.52;;
30896;SDS011;64229;52.246;21.054;2024-02-21T10:59:05;24.30;;;7.45;;
30896;SDS011;64229;52.246;21.054;2024-02-21T11:01:31;27.13;;;7.93;;
30896;SDS011;64229;52.246;21.054;2024-02-21T11:04:02;22.65;;;6.63;;
30896;SDS011;64229;52.246;21.054;2024-02-21T11:06:29;23.70;;;7.45;;
30896;SDS011;64229;52.246;21.054;2024-02-21T11:09:05;19.77;;;7.78;;
30896;SDS011;64229;52.246;21.054;2024-02-21T11:11:34;22.33;;;8.18;;
30896;SDS011;64229;52.246;21.054;2024-02-21T11:14:19;23.02;;;8.13;;
30896;SDS011;64229;52.246;21.054;2024-02-21T11:16:45;21.05;;;7.75;;
30896;SDS011;64229;52.246;21.054;2024-02-21T11:19:21;24.95;;;7.93;;
30896;SDS011;64229;52.246;21.054;2024-02-21T11:21:48;24.73;;;9.20;;
30896;SDS011;64229;52.246;21.054;2024-02-21T11:24:25;26.38;;;8.55;;
30896;SDS011;64229;52.246;21.054;2024-02-21T11:27:11;28.08;;;9.55;;
30896;SDS011;64229;52.246;21.054;2024-02-21T11:29:42;25.13;;;8.65;;
30896;SDS011;64229;52.246;21.054;2024-02-21T11:32:17;21.90;;;8.77;;
30896;SDS011;64229;52.246;21.054;2024-02-21T11:34:54;25.90;;;9.00;;
30896;SDS011;64229;52.246;21.054;2024-02-21T11:37:29;29.17;;;10.10;;
30896;SDS011;64229;52.246;21.054;2024-02-21T11:39:58;23.85;;;9.23;;
30896;SDS011;64229;52.246;21.054;2024-02-21T11:42:25;22.85;;;8.98;;
30896;SDS011;64229;52.246;21.054;2024-02-21T11:44:51;24.15;;;9.52;;
30896;SDS011;64229;52.246;21.054;2024-02-21T11:47:17;26.83;;;10.52;;
30896;SDS011;64229;52.246;21.054;2024-02-21T11:49:46;35.33;;;10.18;;
30896;SDS011;64229;52.246;21.054;2024-02-21T11:52:14;24.65;;;10.55;;
30896;SDS011;64229;52.246;21.054;2024-02-21T11:54:44;26.33;;;9.80;;
30896;SDS011;64229;52.246;21.054;2024-02-21T11:57:09;25.27;;;10.57;;
30896;SDS011;64229;52.246;21.054;2024-02-21T11:59:36;27.27;;;10.20;;
30896;SDS011;64229;52.246;21.054;2024-02-21T12:02:01;28.08;;;10.45;;
30896;SDS011;64229;52.246;21.054;2024-02-21T12:04:28;28.52;;;11.00;;
30896;SDS011;64229;52.246;21.054;2024-02-21T12:06:56;25.48;;;11.20;;
30896;SDS011;64229;52.246;21.054;2024-02-21T12:09:22;26.95;;;11.18;;
30896;SDS011;64229;52.246;21.054;2024-02-21T12:11:56;27.45;;;10.77;;
30896;SDS011;64229;52.246;21.054;2024-02-21T12:14:25;31.73;;;10.55;;
30896;SDS011;64229;52.246;21.054;2024-02-21T12:16:51;27.27;;;10.45;;
30896;SDS011;64229;52.246;21.054;2024-02-21T12:19:16;24.67;;;9.73;;
30896;SDS011;64229;52.246;21.054;2024-02-21T12:21:42;25.38;;;10.52;;
30896;SDS011;64229;52.246;21.054;2024-02-21T12:26:41;31.42;;;11.10;;
30896;SDS011;64229;52.246;21.054;2024-02-21T12:29:07;28.65;;;11.13;;
30896;SDS011;64229;52.246;21.054;2024-02-21T12:31:37;27.17;;;10.60;;
30896;SDS011;64229;52.246;21.054;2024-02-21T12:34:02;31.13;;;10.50;;
30896;SDS011;64229;52.246;21.054;2024-02-21T12:36:29;27.35;;;10.18;;
30896;SDS011;64229;52.246;21.054;2024-02-21T12:38:54;28.38;;;11.70;;
30896;SDS011;64229;52.246;21.054;2024-02-21T12:41:19;25.67;;;10.90;;
30896;SDS011;64229;52.246;21.054;2024-02-21T12:43:45;21.45;;;10.05;;
30896;SDS011;64229;52.246;21.054;2024-02-21T12:46:10;25.20;;;10.13;;
30896;SDS011;64229;52.246;21.054;2024-02-21T12:48:36;26.17;;;10.60;;
30896;SDS011;64229;52.246;21.054;2024-02-21T12:51:01;28.63;;;10.75;;
30896;SDS011;64229;52.246;21.054;2024-02-21T12:53:26;30.13;;;11.40;;
30896;SDS011;64229;52.246;21.054;2024-02-21T12:55:52;27.33;;;10.15;;
30896;SDS011;64229;52.246;21.054;2024-02-21T12:58:17;33.00;;;11.95;;
30896;SDS011;64229;52.246;21.054;2024-02-21T13:00:42;25.20;;;10.95;;
30896;SDS011;64229;52.246;21.054;2024-02-21T13:03:08;29.90;;;11.85;;
30896;SDS011;64229;52.246;21.054;2024-02-21T13:05:37;22.77;;;10.73;;
30896;SDS011;64229;52.246;21.054;2024-02-21T13:08:03;30.33;;;11.70;;
30896;SDS011;64229;52.246;21.054;2024-02-21T13:10:30;24.30;;;10.75;;
30896;SDS011;64229;52.246;21.054;2024-02-21T13:12:55;24.73;;;11.25;;
30896;SDS011;64229;52.246;21.054;2024-02-21T13:15:20;27.75;;;12.10;;
30896;SDS011;64229;52.246;21.054;2024-02-21T13:17:46;30.73;;;10.25;;
30896;SDS011;64229;52.246;21.054;2024-02-21T13:20:11;22.83;;;9.75;;
30896;SDS011;64229;52.246;21.054;2024-02-21T13:22:36;24.90;;;10.40;;
30896;SDS011;64229;52.246;21.054;2024-02-21T13:25:02;19.00;;;9.55;;
30896;SDS011;64229;52.246;21.054;2024-02-21T13:27:28;26.70;;;10.07;;
30896;SDS011;64229;52.246;21.054;2024-02-21T13:29:53;27.17;;;10.18;;
30896;SDS011;64229;52.246;21.054;2024-02-21T13:32:18;20.90;;;10.23;;
30896;SDS011;64229;52.246;21.054;2024-02-21T13:34:44;30.52;;;10.65;;
30896;SDS011;64229;52.246;21.054;2024-02-21T13:37:09;24.55;;;10.00;;
30896;SDS011;64229;52.246;21.054;2024-02-21T13:39:38;25.48;;;9.60;;
30896;SDS011;64229;52.246;21.054;2024-02-21T13:42:04;26.50;;;9.60;;
30896;SDS011;64229;52.246;21.054;2024-02-21T13:44:30;23.23;;;10.07;;
30896;SDS011;64229;52.246;21.054;2024-02-21T13:46:59;24.33;;;10.43;;
30896;SDS011;64229;52.246;21.054;2024-02-21T13:49:24;26.52;;;10.05;;
30896;SDS011;64229;52.246;21.054;2024-02-21T13:51:50;26.87;;;9.80;;
30896;SDS011;64229;52.246;21.054;2024-02-21T13:54:15;24.38;;;9.25;;
30896;SDS011;64229;52.246;21.054;2024-02-21T13:56:44;27.83;;;9.15;;
30896;SDS011;64229;52.246;21.054;2024-02-21T13:59:09;25.05;;;9.77;;
30896;SDS011;64229;52.246;21.054;2024-02-21T14:01:35;25.38;;;9.35;;
30896;SDS011;64229;52.246;21.054;2024-02-21T14:04:00;23.13;;;9.70;;
30896;SDS011;64229;52.246;21.054;2024-02-21T14:06:26;24.55;;;9.80;;
30896;SDS011;64229;52.246;21.054;2024-02-21T14:08:52;22.02;;;8.60;;
30896;SDS011;64229;52.246;21.054;2024-02-21T14:11:17;22.70;;;8.77;;
30896;SDS011;64229;52.246;21.054;2024-02-21T14:13:42;26.67;;;9.73;;
30896;SDS011;64229;52.246;21.054;2024-02-21T14:16:11;19.88;;;8.38;;
30896;SDS011;64229;52.246;21.054;2024-02-21T14:18:39;22.30;;;8.90;;
30896;SDS011;64229;52.246;21.054;2024-02-21T14:21:08;23.23;;;9.07;;